sensor_id;sensor_type;location;lat;lon;timestamp;temperature;humidity
12089;DHT22;6107;49.078;8.578;2022-08-18T00:00:51;21.50;91.60
12089;DHT22;6107;49.078;8.578;2022-08-18T00:03:16;21.50;91.60
12089;DHT22;6107;49.078;8.578;2022-08-18T00:05:44;21.40;91.60
12089;DHT22;6107;49.078;8.578;2022-08-18T00:08:10;21.20;91.90
12089;DHT22;6107;49.078;8.578;2022-08-18T00:10:36;21.20;92.00
12089;DHT22;6107;49.078;8.578;2022-08-18T00:13:04;21.20;92.10
12089;DHT22;6107;49.078;8.578;2022-08-18T00:15:30;21.30;92.40
12089;DHT22;6107;49.078;8.578;2022-08-18T00:17:55;21.30;91.80
12089;DHT22;6107;49.078;8.578;2022-08-18T00:20:22;21.30;91.80
12089;DHT22;6107;49.078;8.578;2022-08-18T00:22:49;21.40;92.20
12089;DHT22;6107;49.078;8.578;2022-08-18T00:25:15;21.40;92.20
12089;DHT22;6107;49.078;8.578;2022-08-18T00:27:41;21.40;92.10
12089;DHT22;6107;49.078;8.578;2022-08-18T00:30:13;21.40;92.30
12089;DHT22;6107;49.078;8.578;2022-08-18T00:32:41;21.30;92.10
12089;DHT22;6107;49.078;8.578;2022-08-18T00:35:13;21.20;92.00
12089;DHT22;6107;49.078;8.578;2022-08-18T00:37:41;21.30;92.40
12089;DHT22;6107;49.078;8.578;2022-08-18T00:40:10;21.20;92.00
12089;DHT22;6107;49.078;8.578;2022-08-18T00:42:50;21.10;92.50
12089;DHT22;6107;49.078;8.578;2022-08-18T00:45:20;21.20;92.10
12089;DHT22;6107;49.078;8.578;2022-08-18T00:47:47;21.20;92.20
12089;DHT22;6107;49.078;8.578;2022-08-18T00:50:21;21.10;92.00
12089;DHT22;6107;49.078;8.578;2022-08-18T00:52:54;21.10;91.90
12089;DHT22;6107;49.078;8.578;2022-08-18T00:55:21;21.00;91.60
12089;DHT22;6107;49.078;8.578;2022-08-18T00:57:50;21.00;91.80
12089;DHT22;6107;49.078;8.578;2022-08-18T01:00:16;21.00;92.20
12089;DHT22;6107;49.078;8.578;2022-08-18T01:02:45;21.00;91.80
12089;DHT22;6107;49.078;8.578;2022-08-18T01:05:22;21.00;91.80
12089;DHT22;6107;49.078;8.578;2022-08-18T01:07:48;21.00;91.60
12089;DHT22;6107;49.078;8.578;2022-08-18T01:10:18;20.80;92.00
12089;DHT22;6107;49.078;8.578;2022-08-18T01:12:46;20.80;92.30
12089;DHT22;6107;49.078;8.578;2022-08-18T01:15:13;20.90;92.00
12089;DHT22;6107;49.078;8.578;2022-08-18T01:17:40;20.80;92.20
12089;DHT22;6107;49.078;8.578;2022-08-18T01:20:32;20.70;92.10
12089;DHT22;6107;49.078;8.578;2022-08-18T01:23:19;20.80;92.40
12089;DHT22;6107;49.078;8.578;2022-08-18T01:25:47;20.80;92.30
12089;DHT22;6107;49.078;8.578;2022-08-18T01:28:26;20.90;92.80
12089;DHT22;6107;49.078;8.578;2022-08-18T01:30:53;20.90;92.10
12089;DHT22;6107;49.078;8.578;2022-08-18T01:33:36;20.90;92.30
12089;DHT22;6107;49.078;8.578;2022-08-18T01:38:31;20.90;92.80
12089;DHT22;6107;49.078;8.578;2022-08-18T01:40:58;20.80;92.80
12089;DHT22;6107;49.078;8.578;2022-08-18T01:43:25;20.80;93.10
12089;DHT22;6107;49.078;8.578;2022-08-18T01:45:50;20.80;93.20
12089;DHT22;6107;49.078;8.578;2022-08-18T01:48:16;20.80;93.10
12089;DHT22;6107;49.078;8.578;2022-08-18T01:50:42;20.80;92.70
12089;DHT22;6107;49.078;8.578;2022-08-18T01:53:10;20.70;92.60
12089;DHT22;6107;49.078;8.578;2022-08-18T01:55:38;20.70;92.90
12089;DHT22;6107;49.078;8.578;2022-08-18T01:58:06;20.50;93.20
12089;DHT22;6107;49.078;8.578;2022-08-18T02:00:33;20.70;93.40
12089;DHT22;6107;49.078;8.578;2022-08-18T02:03:00;20.70;93.20
12089;DHT22;6107;49.078;8.578;2022-08-18T02:05:48;20.70;93.20
12089;DHT22;6107;49.078;8.578;2022-08-18T02:08:15;20.60;93.10
12089;DHT22;6107;49.078;8.578;2022-08-18T02:10:41;20.70;93.30
12089;DHT22;6107;49.078;8.578;2022-08-18T02:13:07;20.80;93.10
12089;DHT22;6107;49.078;8.578;2022-08-18T02:15:33;20.80;92.70
12089;DHT22;6107;49.078;8.578;2022-08-18T02:17:59;20.80;92.80
12089;DHT22;6107;49.078;8.578;2022-08-18T02:20:25;20.70;93.30
12089;DHT22;6107;49.078;8.578;2022-08-18T02:22:51;20.70;93.20
12089;DHT22;6107;49.078;8.578;2022-08-18T02:25:17;20.70;93.10
12089;DHT22;6107;49.078;8.578;2022-08-18T02:27:43;20.70;92.50
12089;DHT22;6107;49.078;8.578;2022-08-18T02:30:13;20.70;92.20
12089;DHT22;6107;49.078;8.578;2022-08-18T02:32:39;20.70;92.30
12089;DHT22;6107;49.078;8.578;2022-08-18T02:35:06;20.70;92.90
12089;DHT22;6107;49.078;8.578;2022-08-18T02:37:32;20.50;93.50
12089;DHT22;6107;49.078;8.578;2022-08-18T02:39:57;20.50;93.10
12089;DHT22;6107;49.078;8.578;2022-08-18T02:42:23;20.60;93.30
12089;DHT22;6107;49.078;8.578;2022-08-18T02:44:49;20.50;93.70
12089;DHT22;6107;49.078;8.578;2022-08-18T02:47:20;20.40;93.70
12089;DHT22;6107;49.078;8.578;2022-08-18T02:49:47;20.40;94.00
12089;DHT22;6107;49.078;8.578;2022-08-18T02:52:12;20.40;93.90
12089;DHT22;6107;49.078;8.578;2022-08-18T02:54:38;20.40;93.80
12089;DHT22;6107;49.078;8.578;2022-08-18T02:57:09;20.40;93.40
12089;DHT22;6107;49.078;8.578;2022-08-18T02:59:36;20.40;93.80
12089;DHT22;6107;49.078;8.578;2022-08-18T03:02:04;20.20;94.20
12089;DHT22;6107;49.078;8.578;2022-08-18T03:04:31;20.10;94.60
12089;DHT22;6107;49.078;8.578;2022-08-18T03:07:00;20.30;94.40
12089;DHT22;6107;49.078;8.578;2022-08-18T03:09:27;20.40;94.00
12089;DHT22;6107;49.078;8.578;2022-08-18T03:11:53;20.40;94.10
12089;DHT22;6107;49.078;8.578;2022-08-18T03:14:19;20.30;94.30
12089;DHT22;6107;49.078;8.578;2022-08-18T03:16:46;20.40;94.50
12089;DHT22;6107;49.078;8.578;2022-08-18T03:19:12;20.10;94.80
12089;DHT22;6107;49.078;8.578;2022-08-18T03:21:45;20.00;95.20
12089;DHT22;6107;49.078;8.578;2022-08-18T03:24:11;20.00;95.10
12089;DHT22;6107;49.078;8.578;2022-08-18T03:26:42;19.90;95.40
12089;DHT22;6107;49.078;8.578;2022-08-18T03:29:09;19.90;95.40
12089;DHT22;6107;49.078;8.578;2022-08-18T03:31:35;19.90;95.60
12089;DHT22;6107;49.078;8.578;2022-08-18T03:34:04;19.90;96.10
12089;DHT22;6107;49.078;8.578;2022-08-18T03:36:31;19.90;96.50
12089;DHT22;6107;49.078;8.578;2022-08-18T03:39:00;19.90;96.80
12089;DHT22;6107;49.078;8.578;2022-08-18T03:41:27;19.80;97.10
12089;DHT22;6107;49.078;8.578;2022-08-18T03:43:53;19.80;97.60
12089;DHT22;6107;49.078;8.578;2022-08-18T03:46:20;19.80;97.70
12089;DHT22;6107;49.078;8.578;2022-08-18T03:48:47;19.90;97.60
12089;DHT22;6107;49.078;8.578;2022-08-18T03:51:16;19.90;97.80
12089;DHT22;6107;49.078;8.578;2022-08-18T03:53:43;19.90;97.60
12089;DHT22;6107;49.078;8.578;2022-08-18T03:56:11;20.00;97.60
12089;DHT22;6107;49.078;8.578;2022-08-18T03:58:46;20.00;97.80
12089;DHT22;6107;49.078;8.578;2022-08-18T04:01:13;20.10;97.80
12089;DHT22;6107;49.078;8.578;2022-08-18T04:03:41;20.20;97.40
12089;DHT22;6107;49.078;8.578;2022-08-18T04:06:13;20.10;97.40
12089;DHT22;6107;49.078;8.578;2022-08-18T04:08:38;19.90;97.90
12089;DHT22;6107;49.078;8.578;2022-08-18T04:11:04;19.70;98.20
12089;DHT22;6107;49.078;8.578;2022-08-18T04:13:30;19.80;98.30
12089;DHT22;6107;49.078;8.578;2022-08-18T04:16:00;19.70;98.50
12089;DHT22;6107;49.078;8.578;2022-08-18T04:18:26;19.60;98.80
12089;DHT22;6107;49.078;8.578;2022-08-18T04:20:52;19.50;99.20
12089;DHT22;6107;49.078;8.578;2022-08-18T04:23:18;19.50;99.10
12089;DHT22;6107;49.078;8.578;2022-08-18T04:25:43;19.70;99.10
12089;DHT22;6107;49.078;8.578;2022-08-18T04:28:09;19.80;98.60
12089;DHT22;6107;49.078;8.578;2022-08-18T04:30:36;19.90;98.40
12089;DHT22;6107;49.078;8.578;2022-08-18T04:33:01;20.00;98.50
12089;DHT22;6107;49.078;8.578;2022-08-18T04:35:27;19.90;98.60
12089;DHT22;6107;49.078;8.578;2022-08-18T04:37:53;19.70;99.10
12089;DHT22;6107;49.078;8.578;2022-08-18T04:40:18;19.60;99.40
12089;DHT22;6107;49.078;8.578;2022-08-18T04:42:44;19.70;99.50
12089;DHT22;6107;49.078;8.578;2022-08-18T04:45:10;19.70;99.50
12089;DHT22;6107;49.078;8.578;2022-08-18T04:47:37;19.80;99.70
12089;DHT22;6107;49.078;8.578;2022-08-18T04:50:04;19.70;99.60
12089;DHT22;6107;49.078;8.578;2022-08-18T04:52:29;19.80;99.30
12089;DHT22;6107;49.078;8.578;2022-08-18T04:55:14;19.80;99.70
12089;DHT22;6107;49.078;8.578;2022-08-18T04:57:39;19.70;99.90
12089;DHT22;6107;49.078;8.578;2022-08-18T05:00:07;19.80;99.90
12089;DHT22;6107;49.078;8.578;2022-08-18T05:02:36;20.00;99.60
12089;DHT22;6107;49.078;8.578;2022-08-18T05:05:02;20.10;99.30
12089;DHT22;6107;49.078;8.578;2022-08-18T05:07:28;20.10;99.10
12089;DHT22;6107;49.078;8.578;2022-08-18T05:09:53;20.10;99.20
12089;DHT22;6107;49.078;8.578;2022-08-18T05:12:19;20.10;99.30
12089;DHT22;6107;49.078;8.578;2022-08-18T05:14:45;20.20;99.00
12089;DHT22;6107;49.078;8.578;2022-08-18T05:17:13;20.10;98.80
12089;DHT22;6107;49.078;8.578;2022-08-18T05:19:39;20.10;99.10
12089;DHT22;6107;49.078;8.578;2022-08-18T05:22:05;20.20;99.00
12089;DHT22;6107;49.078;8.578;2022-08-18T05:24:32;20.20;99.50
12089;DHT22;6107;49.078;8.578;2022-08-18T05:27:00;20.10;99.00
12089;DHT22;6107;49.078;8.578;2022-08-18T05:29:25;20.10;99.30
12089;DHT22;6107;49.078;8.578;2022-08-18T05:31:52;20.10;99.50
12089;DHT22;6107;49.078;8.578;2022-08-18T05:34:20;20.20;99.30
12089;DHT22;6107;49.078;8.578;2022-08-18T05:41:47;20.20;99.10
12089;DHT22;6107;49.078;8.578;2022-08-18T05:44:17;20.30;99.30
12089;DHT22;6107;49.078;8.578;2022-08-18T05:47:04;20.50;98.50
12089;DHT22;6107;49.078;8.578;2022-08-18T05:49:31;20.70;97.90
12089;DHT22;6107;49.078;8.578;2022-08-18T05:52:01;20.60;98.00
12089;DHT22;6107;49.078;8.578;2022-08-18T05:54:52;20.80;97.50
12089;DHT22;6107;49.078;8.578;2022-08-18T05:57:44;21.10;96.90
12089;DHT22;6107;49.078;8.578;2022-08-18T06:00:14;21.10;97.20
12089;DHT22;6107;49.078;8.578;2022-08-18T06:02:45;20.60;98.20
12089;DHT22;6107;49.078;8.578;2022-08-18T06:05:21;21.00;97.30
12089;DHT22;6107;49.078;8.578;2022-08-18T06:08:16;21.10;97.30
12089;DHT22;6107;49.078;8.578;2022-08-18T06:10:46;20.90;97.70
12089;DHT22;6107;49.078;8.578;2022-08-18T06:13:13;21.20;97.10
12089;DHT22;6107;49.078;8.578;2022-08-18T06:21:06;21.00;97.60
12089;DHT22;6107;49.078;8.578;2022-08-18T06:27:00;21.20;96.80
12089;DHT22;6107;49.078;8.578;2022-08-18T06:30:03;21.10;97.40
12089;DHT22;6107;49.078;8.578;2022-08-18T06:35:28;21.10;97.30
12089;DHT22;6107;49.078;8.578;2022-08-18T06:41:21;20.80;97.90
12089;DHT22;6107;49.078;8.578;2022-08-18T06:44:06;21.20;97.20
12089;DHT22;6107;49.078;8.578;2022-08-18T06:46:43;21.00;97.60
12089;DHT22;6107;49.078;8.578;2022-08-18T06:49:34;20.90;97.90
12089;DHT22;6107;49.078;8.578;2022-08-18T06:54:43;20.70;98.40
12089;DHT22;6107;49.078;8.578;2022-08-18T06:57:21;20.70;98.60
12089;DHT22;6107;49.078;8.578;2022-08-18T06:59:58;20.70;98.70
12089;DHT22;6107;49.078;8.578;2022-08-18T07:02:41;20.70;98.70
12089;DHT22;6107;49.078;8.578;2022-08-18T07:05:29;20.80;98.80
12089;DHT22;6107;49.078;8.578;2022-08-18T07:08:32;20.80;98.70
12089;DHT22;6107;49.078;8.578;2022-08-18T07:13:40;21.20;98.30
12089;DHT22;6107;49.078;8.578;2022-08-18T07:16:23;21.10;98.40
12089;DHT22;6107;49.078;8.578;2022-08-18T07:18:48;20.60;99.50
12089;DHT22;6107;49.078;8.578;2022-08-18T07:21:28;20.60;99.90
12089;DHT22;6107;49.078;8.578;2022-08-18T07:24:10;20.80;99.80
12089;DHT22;6107;49.078;8.578;2022-08-18T07:27:13;21.00;99.50
12089;DHT22;6107;49.078;8.578;2022-08-18T07:32:28;21.30;98.70
12089;DHT22;6107;49.078;8.578;2022-08-18T07:34:58;21.20;98.90
12089;DHT22;6107;49.078;8.578;2022-08-18T07:37:35;21.00;99.50
12089;DHT22;6107;49.078;8.578;2022-08-18T07:40:31;20.90;99.90
12089;DHT22;6107;49.078;8.578;2022-08-18T07:43:07;20.80;99.90
12089;DHT22;6107;49.078;8.578;2022-08-18T07:45:40;20.90;99.90
12089;DHT22;6107;49.078;8.578;2022-08-18T07:53:35;20.60;99.90
12089;DHT22;6107;49.078;8.578;2022-08-18T07:56:15;20.60;99.90
12089;DHT22;6107;49.078;8.578;2022-08-18T07:59:17;20.60;99.90
12089;DHT22;6107;49.078;8.578;2022-08-18T08:07:57;21.00;99.90
12089;DHT22;6107;49.078;8.578;2022-08-18T08:13:22;21.00;99.90
12089;DHT22;6107;49.078;8.578;2022-08-18T08:16:14;21.20;99.50
12089;DHT22;6107;49.078;8.578;2022-08-18T08:19:02;21.10;99.90
12089;DHT22;6107;49.078;8.578;2022-08-18T08:21:32;20.80;99.90
12089;DHT22;6107;49.078;8.578;2022-08-18T08:27:05;20.50;99.90
12089;DHT22;6107;49.078;8.578;2022-08-18T08:30:02;20.30;99.90
12089;DHT22;6107;49.078;8.578;2022-08-18T08:32:40;20.40;99.90
12089;DHT22;6107;49.078;8.578;2022-08-18T08:35:13;20.30;99.90
12089;DHT22;6107;49.078;8.578;2022-08-18T08:37:51;20.40;99.90
12089;DHT22;6107;49.078;8.578;2022-08-18T08:43:05;20.50;99.90
12089;DHT22;6107;49.078;8.578;2022-08-18T08:45:41;20.50;99.90
12089;DHT22;6107;49.078;8.578;2022-08-18T08:48:24;20.80;99.90
12089;DHT22;6107;49.078;8.578;2022-08-18T08:51:14;20.60;99.90
12089;DHT22;6107;49.078;8.578;2022-08-18T08:53:48;20.90;99.90
12089;DHT22;6107;49.078;8.578;2022-08-18T08:56:16;21.10;99.90
12089;DHT22;6107;49.078;8.578;2022-08-18T08:58:59;21.10;99.90
12089;DHT22;6107;49.078;8.578;2022-08-18T09:01:55;21.20;99.90
12089;DHT22;6107;49.078;8.578;2022-08-18T09:07:45;20.90;99.90
12089;DHT22;6107;49.078;8.578;2022-08-18T09:24:49;21.20;99.90
12089;DHT22;6107;49.078;8.578;2022-08-18T09:27:40;21.40;99.90
12089;DHT22;6107;49.078;8.578;2022-08-18T09:33:51;21.80;99.90
12089;DHT22;6107;49.078;8.578;2022-08-18T09:36:07;21.50;99.90
12089;DHT22;6107;49.078;8.578;2022-08-18T09:38:47;21.60;99.90
12089;DHT22;6107;49.078;8.578;2022-08-18T09:41:38;21.60;99.90
12089;DHT22;6107;49.078;8.578;2022-08-18T09:44:13;21.80;99.90
12089;DHT22;6107;49.078;8.578;2022-08-18T09:51:59;21.80;99.90
12089;DHT22;6107;49.078;8.578;2022-08-18T09:54:32;22.00;99.90
12089;DHT22;6107;49.078;8.578;2022-08-18T10:02:12;22.10;99.90
12089;DHT22;6107;49.078;8.578;2022-08-18T10:08:23;22.10;99.90
12089;DHT22;6107;49.078;8.578;2022-08-18T10:10:50;22.20;99.80
12089;DHT22;6107;49.078;8.578;2022-08-18T10:16:36;22.40;98.80
12089;DHT22;6107;49.078;8.578;2022-08-18T10:22:35;22.90;98.50
12089;DHT22;6107;49.078;8.578;2022-08-18T10:25:01;22.80;98.40
12089;DHT22;6107;49.078;8.578;2022-08-18T10:32:58;24.00;95.70
12089;DHT22;6107;49.078;8.578;2022-08-18T10:38:12;24.20;95.80
12089;DHT22;6107;49.078;8.578;2022-08-18T10:40:40;24.30;94.80
12089;DHT22;6107;49.078;8.578;2022-08-18T10:43:20;24.20;94.90
12089;DHT22;6107;49.078;8.578;2022-08-18T10:45:51;24.90;94.90
12089;DHT22;6107;49.078;8.578;2022-08-18T10:48:31;24.70;93.00
12089;DHT22;6107;49.078;8.578;2022-08-18T10:53:49;24.60;92.50
12089;DHT22;6107;49.078;8.578;2022-08-18T10:56:39;25.10;91.00
12089;DHT22;6107;49.078;8.578;2022-08-18T10:59:27;25.30;91.10
12089;DHT22;6107;49.078;8.578;2022-08-18T11:02:08;24.90;91.40
12089;DHT22;6107;49.078;8.578;2022-08-18T11:07:11;24.50;91.70
12089;DHT22;6107;49.078;8.578;2022-08-18T11:09:39;24.70;92.30
12089;DHT22;6107;49.078;8.578;2022-08-18T11:12:06;25.20;91.30
12089;DHT22;6107;49.078;8.578;2022-08-18T11:14:53;25.70;90.90
12089;DHT22;6107;49.078;8.578;2022-08-18T11:19:59;26.90;89.00
12089;DHT22;6107;49.078;8.578;2022-08-18T11:22:33;26.90;88.10
12089;DHT22;6107;49.078;8.578;2022-08-18T11:25:00;26.90;86.50
12089;DHT22;6107;49.078;8.578;2022-08-18T11:27:29;26.80;86.30
12089;DHT22;6107;49.078;8.578;2022-08-18T11:30:00;26.40;86.10
12089;DHT22;6107;49.078;8.578;2022-08-18T11:32:32;26.20;89.20
12089;DHT22;6107;49.078;8.578;2022-08-18T11:37:32;25.80;88.00
12089;DHT22;6107;49.078;8.578;2022-08-18T11:40:01;26.00;88.00
12089;DHT22;6107;49.078;8.578;2022-08-18T11:42:30;26.50;88.50
12089;DHT22;6107;49.078;8.578;2022-08-18T11:47:31;27.50;83.90
12089;DHT22;6107;49.078;8.578;2022-08-18T11:52:53;26.70;85.60
12089;DHT22;6107;49.078;8.578;2022-08-18T11:55:28;27.10;84.50
12089;DHT22;6107;49.078;8.578;2022-08-18T11:57:55;27.00;83.40
12089;DHT22;6107;49.078;8.578;2022-08-18T12:01:00;27.10;84.30
12089;DHT22;6107;49.078;8.578;2022-08-18T12:03:45;27.70;82.70
12089;DHT22;6107;49.078;8.578;2022-08-18T12:06:21;27.80;82.20
12089;DHT22;6107;49.078;8.578;2022-08-18T12:08:56;27.90;79.40
12089;DHT22;6107;49.078;8.578;2022-08-18T12:11:26;28.00;82.10
12089;DHT22;6107;49.078;8.578;2022-08-18T12:14:03;28.10;80.90
12089;DHT22;6107;49.078;8.578;2022-08-18T12:16:39;27.70;80.30
12089;DHT22;6107;49.078;8.578;2022-08-18T12:19:07;27.80;80.80
12089;DHT22;6107;49.078;8.578;2022-08-18T12:21:55;28.00;78.60
12089;DHT22;6107;49.078;8.578;2022-08-18T12:24:24;28.30;77.30
12089;DHT22;6107;49.078;8.578;2022-08-18T12:26:50;28.40;77.30
12089;DHT22;6107;49.078;8.578;2022-08-18T12:29:17;28.20;76.80
12089;DHT22;6107;49.078;8.578;2022-08-18T12:31:47;28.10;78.30
12089;DHT22;6107;49.078;8.578;2022-08-18T12:34:16;28.60;76.40
12089;DHT22;6107;49.078;8.578;2022-08-18T12:36:41;28.90;75.90
12089;DHT22;6107;49.078;8.578;2022-08-18T12:39:07;29.20;76.70
12089;DHT22;6107;49.078;8.578;2022-08-18T12:41:32;29.30;76.70
12089;DHT22;6107;49.078;8.578;2022-08-18T12:43:58;29.60;74.40
12089;DHT22;6107;49.078;8.578;2022-08-18T12:46:23;29.50;74.10
12089;DHT22;6107;49.078;8.578;2022-08-18T12:48:49;29.80;73.30
12089;DHT22;6107;49.078;8.578;2022-08-18T12:51:15;29.90;72.70
12089;DHT22;6107;49.078;8.578;2022-08-18T12:53:40;30.40;71.90
12089;DHT22;6107;49.078;8.578;2022-08-18T12:56:18;30.50;71.80
12089;DHT22;6107;49.078;8.578;2022-08-18T12:58:45;30.40;70.60
12089;DHT22;6107;49.078;8.578;2022-08-18T13:01:11;30.40;70.30
12089;DHT22;6107;49.078;8.578;2022-08-18T13:03:36;30.40;70.70
12089;DHT22;6107;49.078;8.578;2022-08-18T13:06:02;29.20;70.20
12089;DHT22;6107;49.078;8.578;2022-08-18T13:08:27;29.20;72.60
12089;DHT22;6107;49.078;8.578;2022-08-18T13:10:53;30.10;71.60
12089;DHT22;6107;49.078;8.578;2022-08-18T13:13:19;30.30;69.60
12089;DHT22;6107;49.078;8.578;2022-08-18T13:15:46;29.50;69.60
12089;DHT22;6107;49.078;8.578;2022-08-18T13:18:12;30.00;68.80
12089;DHT22;6107;49.078;8.578;2022-08-18T13:20:39;29.90;70.90
12089;DHT22;6107;49.078;8.578;2022-08-18T13:23:06;30.50;67.20
12089;DHT22;6107;49.078;8.578;2022-08-18T13:25:31;30.10;68.80
12089;DHT22;6107;49.078;8.578;2022-08-18T13:27:57;30.50;70.00
12089;DHT22;6107;49.078;8.578;2022-08-18T13:30:23;30.90;67.60
12089;DHT22;6107;49.078;8.578;2022-08-18T13:32:49;30.80;66.40
12089;DHT22;6107;49.078;8.578;2022-08-18T13:35:14;31.00;67.00
12089;DHT22;6107;49.078;8.578;2022-08-18T13:37:40;30.80;67.40
12089;DHT22;6107;49.078;8.578;2022-08-18T13:40:07;31.00;67.10
12089;DHT22;6107;49.078;8.578;2022-08-18T13:42:45;31.00;64.60
12089;DHT22;6107;49.078;8.578;2022-08-18T13:45:16;31.10;66.80
12089;DHT22;6107;49.078;8.578;2022-08-18T13:47:42;30.90;65.20
12089;DHT22;6107;49.078;8.578;2022-08-18T13:50:09;30.60;66.10
12089;DHT22;6107;49.078;8.578;2022-08-18T13:52:36;30.80;66.40
12089;DHT22;6107;49.078;8.578;2022-08-18T13:55:02;30.80;65.10
12089;DHT22;6107;49.078;8.578;2022-08-18T13:57:28;31.10;66.00
12089;DHT22;6107;49.078;8.578;2022-08-18T13:59:56;31.10;64.30
12089;DHT22;6107;49.078;8.578;2022-08-18T14:02:21;30.50;64.40
12089;DHT22;6107;49.078;8.578;2022-08-18T14:04:47;30.90;66.40
12089;DHT22;6107;49.078;8.578;2022-08-18T14:07:13;30.40;65.70
12089;DHT22;6107;49.078;8.578;2022-08-18T14:09:41;30.20;64.50
12089;DHT22;6107;49.078;8.578;2022-08-18T14:12:19;30.60;66.30
12089;DHT22;6107;49.078;8.578;2022-08-18T14:14:45;30.20;64.80
12089;DHT22;6107;49.078;8.578;2022-08-18T14:17:10;30.40;65.50
12089;DHT22;6107;49.078;8.578;2022-08-18T14:19:37;30.50;64.80
12089;DHT22;6107;49.078;8.578;2022-08-18T14:22:21;30.50;62.80
12089;DHT22;6107;49.078;8.578;2022-08-18T14:25:06;30.00;64.10
12089;DHT22;6107;49.078;8.578;2022-08-18T14:27:50;29.60;66.10
12089;DHT22;6107;49.078;8.578;2022-08-18T14:30:16;29.60;65.50
12089;DHT22;6107;49.078;8.578;2022-08-18T14:32:43;29.40;65.80
12089;DHT22;6107;49.078;8.578;2022-08-18T14:35:11;29.50;64.90
12089;DHT22;6107;49.078;8.578;2022-08-18T14:37:37;29.80;66.10
12089;DHT22;6107;49.078;8.578;2022-08-18T14:40:03;30.40;66.40
12089;DHT22;6107;49.078;8.578;2022-08-18T14:42:29;30.30;64.40
12089;DHT22;6107;49.078;8.578;2022-08-18T14:44:54;29.90;65.70
12089;DHT22;6107;49.078;8.578;2022-08-18T14:47:22;29.80;66.70
12089;DHT22;6107;49.078;8.578;2022-08-18T14:49:48;30.00;67.90
12089;DHT22;6107;49.078;8.578;2022-08-18T14:52:13;30.00;63.70
12089;DHT22;6107;49.078;8.578;2022-08-18T14:54:39;29.30;62.60
12089;DHT22;6107;49.078;8.578;2022-08-18T14:57:05;29.40;64.10
12089;DHT22;6107;49.078;8.578;2022-08-18T14:59:33;29.70;66.70
12089;DHT22;6107;49.078;8.578;2022-08-18T15:01:59;29.00;69.40
12089;DHT22;6107;49.078;8.578;2022-08-18T15:04:25;29.50;69.90
12089;DHT22;6107;49.078;8.578;2022-08-18T15:06:52;29.50;71.00
12089;DHT22;6107;49.078;8.578;2022-08-18T15:09:17;29.40;69.80
12089;DHT22;6107;49.078;8.578;2022-08-18T15:11:43;29.80;70.60
12089;DHT22;6107;49.078;8.578;2022-08-18T15:14:08;29.90;69.60
12089;DHT22;6107;49.078;8.578;2022-08-18T15:16:34;29.60;69.30
12089;DHT22;6107;49.078;8.578;2022-08-18T15:19:00;29.20;68.70
12089;DHT22;6107;49.078;8.578;2022-08-18T15:21:27;29.00;70.50
12089;DHT22;6107;49.078;8.578;2022-08-18T15:24:12;28.50;70.60
12089;DHT22;6107;49.078;8.578;2022-08-18T15:26:56;28.70;71.60
12089;DHT22;6107;49.078;8.578;2022-08-18T15:29:22;28.50;71.50
12089;DHT22;6107;49.078;8.578;2022-08-18T15:31:48;28.70;70.80
12089;DHT22;6107;49.078;8.578;2022-08-18T15:34:15;28.50;71.80
12089;DHT22;6107;49.078;8.578;2022-08-18T15:36:43;28.30;71.60
12089;DHT22;6107;49.078;8.578;2022-08-18T15:39:09;28.60;72.70
12089;DHT22;6107;49.078;8.578;2022-08-18T15:41:40;28.50;71.90
12089;DHT22;6107;49.078;8.578;2022-08-18T15:44:07;28.40;71.30
12089;DHT22;6107;49.078;8.578;2022-08-18T15:46:34;28.30;72.10
12089;DHT22;6107;49.078;8.578;2022-08-18T15:49:01;27.50;73.60
12089;DHT22;6107;49.078;8.578;2022-08-18T15:51:29;27.50;74.80
12089;DHT22;6107;49.078;8.578;2022-08-18T15:53:55;27.70;72.50
12089;DHT22;6107;49.078;8.578;2022-08-18T15:56:22;27.80;73.40
12089;DHT22;6107;49.078;8.578;2022-08-18T15:58:49;27.70;72.20
12089;DHT22;6107;49.078;8.578;2022-08-18T16:01:16;27.80;73.00
12089;DHT22;6107;49.078;8.578;2022-08-18T16:03:41;27.50;73.00
12089;DHT22;6107;49.078;8.578;2022-08-18T16:06:12;27.60;73.80
12089;DHT22;6107;49.078;8.578;2022-08-18T16:08:38;27.50;74.60
12089;DHT22;6107;49.078;8.578;2022-08-18T16:11:09;27.50;74.30
12089;DHT22;6107;49.078;8.578;2022-08-18T16:13:35;27.30;73.60
12089;DHT22;6107;49.078;8.578;2022-08-18T16:16:08;27.30;74.80
12089;DHT22;6107;49.078;8.578;2022-08-18T16:18:34;27.70;74.40
12089;DHT22;6107;49.078;8.578;2022-08-18T16:21:05;27.70;74.50
12089;DHT22;6107;49.078;8.578;2022-08-18T16:23:34;27.40;73.40
12089;DHT22;6107;49.078;8.578;2022-08-18T16:26:00;27.20;74.70
12089;DHT22;6107;49.078;8.578;2022-08-18T16:28:26;27.10;75.40
12089;DHT22;6107;49.078;8.578;2022-08-18T16:30:53;27.40;74.70
12089;DHT22;6107;49.078;8.578;2022-08-18T16:33:19;27.20;74.30
12089;DHT22;6107;49.078;8.578;2022-08-18T16:35:44;27.30;75.10
12089;DHT22;6107;49.078;8.578;2022-08-18T16:38:12;27.30;73.90
12089;DHT22;6107;49.078;8.578;2022-08-18T16:40:38;27.30;74.10
12089;DHT22;6107;49.078;8.578;2022-08-18T16:43:05;27.00;72.40
12089;DHT22;6107;49.078;8.578;2022-08-18T16:45:32;26.80;73.30
12089;DHT22;6107;49.078;8.578;2022-08-18T16:48:00;26.80;73.00
12089;DHT22;6107;49.078;8.578;2022-08-18T16:50:27;26.60;72.10
12089;DHT22;6107;49.078;8.578;2022-08-18T16:52:53;26.50;72.10
12089;DHT22;6107;49.078;8.578;2022-08-18T16:55:19;26.70;73.00
12089;DHT22;6107;49.078;8.578;2022-08-18T16:57:44;26.60;72.40
12089;DHT22;6107;49.078;8.578;2022-08-18T17:00:48;26.40;72.50
12089;DHT22;6107;49.078;8.578;2022-08-18T17:03:33;26.50;71.90
12089;DHT22;6107;49.078;8.578;2022-08-18T17:06:18;26.40;71.40
12089;DHT22;6107;49.078;8.578;2022-08-18T17:08:44;26.40;72.30
12089;DHT22;6107;49.078;8.578;2022-08-18T17:11:13;26.50;72.80
12089;DHT22;6107;49.078;8.578;2022-08-18T17:13:39;26.50;71.50
12089;DHT22;6107;49.078;8.578;2022-08-18T17:16:06;26.20;71.60
12089;DHT22;6107;49.078;8.578;2022-08-18T17:18:34;26.40;72.10
12089;DHT22;6107;49.078;8.578;2022-08-18T17:21:01;26.50;71.90
12089;DHT22;6107;49.078;8.578;2022-08-18T17:23:29;26.40;71.70
12089;DHT22;6107;49.078;8.578;2022-08-18T17:25:54;26.30;72.30
12089;DHT22;6107;49.078;8.578;2022-08-18T17:28:23;26.20;72.10
12089;DHT22;6107;49.078;8.578;2022-08-18T17:30:51;26.20;72.50
12089;DHT22;6107;49.078;8.578;2022-08-18T17:33:32;26.20;72.80
12089;DHT22;6107;49.078;8.578;2022-08-18T17:36:02;26.20;72.70
12089;DHT22;6107;49.078;8.578;2022-08-18T17:38:45;25.90;73.30
12089;DHT22;6107;49.078;8.578;2022-08-18T17:41:16;25.90;73.90
12089;DHT22;6107;49.078;8.578;2022-08-18T17:43:42;25.90;74.10
12089;DHT22;6107;49.078;8.578;2022-08-18T17:46:21;26.10;74.60
12089;DHT22;6107;49.078;8.578;2022-08-18T17:49:03;26.00;73.90
12089;DHT22;6107;49.078;8.578;2022-08-18T17:51:45;25.90;74.40
12089;DHT22;6107;49.078;8.578;2022-08-18T17:54:52;25.90;74.60
12089;DHT22;6107;49.078;8.578;2022-08-18T17:57:18;25.90;75.10
12089;DHT22;6107;49.078;8.578;2022-08-18T18:02:28;25.80;75.30
12089;DHT22;6107;49.078;8.578;2022-08-18T18:04:55;25.80;76.00
12089;DHT22;6107;49.078;8.578;2022-08-18T18:07:29;25.80;75.90